Time;durP1;ratioP1;P1;durP2;ratioP2;P2;SDS_P1;SDS_P2;PMS_P1;PMS_P2;Temp;Humidity;BMP_temperature;BMP_pressure;BME280_temperature;BME280_humidity;BME280_pressure;Samples;Min_cycle;Max_cycle;Signal;HPM_P1;HPM_P2
2023/02/27 00:00:23;;;;;;;5.15;1.27;;;2.30;99.90;;;;;;4951293;29;20803;-56
2023/02/27 00:02:50;;;;;;;7.90;1.55;;;2.30;99.90;;;;;;4952334;29;20051;-56
2023/02/27 00:05:18;;;;;;;3.95;1.02;;;2.20;99.90;;;;;;4951395;29;20051;-58
2023/02/27 00:07:44;;;;;;;5.55;1.65;;;2.30;99.90;;;;;;4951490;29;20066;-56
2023/02/27 00:10:12;;;;;;;6.68;1.52;;;2.20;99.90;;;;;;4955364;28;20113;-54
2023/02/27 00:12:39;;;;;;;7.40;1.40;;;2.30;99.90;;;;;;4953376;29;20078;-55
2023/02/27 00:15:14;;;;;;;8.23;1.77;;;2.30;99.90;;;;;;4952447;29;20051;-55
2023/02/27 00:17:41;;;;;;;5.47;1.40;;;2.30;99.90;;;;;;4951787;29;20162;-54
2023/02/27 00:20:10;;;;;;;8.60;1.30;;;2.20;99.90;;;;;;4951915;29;20053;-57
2023/02/27 00:22:37;;;;;;;4.93;1.70;;;2.20;99.90;;;;;;4951759;29;20043;-53
2023/02/27 00:25:05;;;;;;;4.88;1.13;;;2.20;99.90;;;;;;4951866;29;20542;-55
2023/02/27 00:27:32;;;;;;;5.40;1.48;;;2.20;99.90;;;;;;4951307;29;20670;-56
2023/02/27 00:29:58;;;;;;;2.78;1.00;;;2.20;99.90;;;;;;4934660;29;20053;-55
2023/02/27 00:32:25;;;;;;;10.40;2.97;;;2.10;99.90;;;;;;4951203;29;20055;-56
2023/02/27 00:34:52;;;;;;;11.35;1.35;;;2.10;99.90;;;;;;4934575;29;20061;-57
2023/02/27 00:37:19;;;;;;;4.28;1.40;;;2.10;99.90;;;;;;4951247;29;20603;-57
2023/02/27 00:39:45;;;;;;;10.07;1.33;;;2.10;99.90;;;;;;4951083;28;20047;-56
2023/02/27 00:42:12;;;;;;;9.50;1.27;;;2.10;99.90;;;;;;4950724;29;20058;-58
2023/02/27 00:44:40;;;;;;;7.85;1.63;;;2.10;99.90;;;;;;4951202;29;20055;-55
2023/02/27 00:47:06;;;;;;;2.28;1.05;;;2.10;99.90;;;;;;4949975;28;20047;-56
2023/02/27 00:49:33;;;;;;;2.80;1.00;;;2.10;99.90;;;;;;4951201;29;20043;-57
2023/02/27 00:52:00;;;;;;;7.63;1.63;;;2.10;99.90;;;;;;4950400;29;20055;-57
2023/02/27 00:54:27;;;;;;;11.00;1.63;;;2.10;99.90;;;;;;4950893;29;20051;-57
2023/02/27 00:56:53;;;;;;;2.97;1.33;;;2.10;99.90;;;;;;4950755;29;20043;-58
2023/02/27 00:59:20;;;;;;;7.03;1.27;;;2.20;99.90;;;;;;4950884;29;20062;-56
2023/02/27 01:01:47;;;;;;;2.78;1.42;;;2.00;99.90;;;;;;4950242;29;20070;-58
2023/02/27 01:04:14;;;;;;;2.80;1.25;;;2.00;99.90;;;;;;4950717;29;20051;-57
2023/02/27 01:06:40;;;;;;;2.40;1.10;;;2.00;99.90;;;;;;4950275;29;20134;-61
2023/02/27 01:09:07;;;;;;;4.70;0.73;;;2.00;99.90;;;;;;4950729;29;20130;-58
2023/02/27 01:11:34;;;;;;;4.80;1.00;;;2.00;99.90;;;;;;4959960;28;20130;-57
2023/02/27 01:14:03;;;;;;;5.85;1.48;;;2.00;99.90;;;;;;4952003;28;20047;-57
2023/02/27 01:16:30;;;;;;;3.47;1.30;;;2.00;99.90;;;;;;4950491;29;20792;-57
2023/02/27 01:18:57;;;;;;;7.15;1.23;;;2.00;99.90;;;;;;4950079;29;20384;-56
2023/02/27 01:21:24;;;;;;;9.60;2.47;;;2.00;99.90;;;;;;4950040;29;20138;-58
2023/02/27 01:23:51;;;;;;;1.95;0.93;;;2.00;99.90;;;;;;4950181;29;20059;-57
2023/02/27 01:26:18;;;;;;;3.00;1.05;;;2.00;99.90;;;;;;4950523;29;20070;-57
2023/02/27 01:28:46;;;;;;;4.95;1.92;;;2.00;99.90;;;;;;4950210;29;20073;-55
2023/02/27 01:31:13;;;;;;;3.50;0.93;;;2.00;99.90;;;;;;4950241;29;20055;-57
2023/02/27 01:33:39;;;;;;;6.65;1.33;;;2.00;99.90;;;;;;4932895;29;20546;-57
2023/02/27 01:36:06;;;;;;;9.82;2.00;;;2.00;99.90;;;;;;4950899;29;20379;-56
2023/02/27 01:38:33;;;;;;;11.73;1.15;;;1.90;99.90;;;;;;4950149;29;20415;-57
2023/02/27 01:41:00;;;;;;;2.95;1.20;;;1.90;99.90;;;;;;4947772;29;20051;-57
2023/02/27 01:43:27;;;;;;;7.00;2.38;;;1.90;99.90;;;;;;4959953;28;20051;-58
2023/02/27 01:45:54;;;;;;;5.20;1.50;;;1.90;99.90;;;;;;4932246;29;20087;-57
2023/02/27 01:48:33;;;;;;;7.55;1.05;;;1.90;99.90;;;;;;4952059;28;20046;-56
2023/02/27 01:51:05;;;;;;;3.70;1.58;;;1.80;99.90;;;;;;4930764;29;20047;-58
2023/02/27 01:53:33;;;;;;;8.75;3.35;;;1.80;99.90;;;;;;4917679;29;20062;-57
2023/02/27 01:56:06;;;;;;;14.95;1.80;;;1.80;99.90;;;;;;4901702;29;20130;-55
2023/02/27 01:58:33;;;;;;;2.77;1.33;;;1.70;99.90;;;;;;4917074;29;20062;-56
2023/02/27 02:01:00;;;;;;;5.22;1.30;;;1.70;99.90;;;;;;4949210;29;20047;-56
2023/02/27 02:03:34;;;;;;;3.70;1.17;;;1.70;99.90;;;;;;4949967;29;20163;-56
2023/02/27 02:06:02;;;;;;;8.43;2.28;;;1.60;99.90;;;;;;4917715;29;20065;-56
2023/02/27 02:08:30;;;;;;;4.60;1.35;;;1.60;99.90;;;;;;4916993;29;20053;-56
2023/02/27 02:10:57;;;;;;;7.05;1.30;;;1.60;99.90;;;;;;4932457;29;20048;-55
2023/02/27 02:13:24;;;;;;;3.63;1.38;;;1.60;99.90;;;;;;4932914;29;20055;-53
2023/02/27 02:16:01;;;;;;;10.13;1.42;;;1.50;99.90;;;;;;4932605;29;20043;-57
2023/02/27 02:18:48;;;;;;;8.90;1.95;;;1.50;99.90;;;;;;4933244;29;20047;-52
2023/02/27 02:21:44;;;;;;;4.60;1.67;;;1.50;99.90;;;;;;4933414;29;20057;-56
2023/02/27 02:24:16;;;;;;;6.65;1.88;;;1.40;99.90;;;;;;4949544;29;20047;-55
2023/02/27 02:26:54;;;;;;;4.53;2.00;;;1.30;99.90;;;;;;4948868;29;20051;-56
2023/02/27 02:29:41;;;;;;;5.10;2.08;;;1.20;99.90;;;;;;4946405;28;20504;-55
2023/02/27 02:32:31;;;;;;;8.52;2.03;;;1.10;99.90;;;;;;4949470;28;20054;-54
2023/02/27 02:35:36;;;;;;;8.60;2.20;;;1.00;99.90;;;;;;4933018;29;20082;-56
2023/02/27 02:38:40;;;;;;;3.30;1.67;;;0.90;99.90;;;;;;4940521;29;20051;-54
2023/02/27 02:41:37;;;;;;;5.53;1.40;;;0.80;99.90;;;;;;4948718;29;20093;-56
2023/02/27 02:44:17;;;;;;;7.97;2.05;;;0.80;99.90;;;;;;4919477;29;20506;-57
2023/02/27 02:46:46;;;;;;;6.68;1.90;;;0.70;99.90;;;;;;4916874;29;20065;-56
2023/02/27 02:49:27;;;;;;;5.25;1.30;;;0.70;99.90;;;;;;4932526;29;20590;-55
2023/02/27 02:52:10;;;;;;;6.35;2.00;;;0.60;99.90;;;;;;4933322;29;20039;-58
2023/02/27 02:54:44;;;;;;;7.70;1.73;;;0.60;99.90;;;;;;4917839;29;20056;-57
2023/02/27 02:57:20;;;;;;;3.80;1.45;;;1.00;99.90;;;;;;4931891;29;20055;-56
2023/02/27 02:59:51;;;;;;;9.90;2.22;;;0.50;99.90;;;;;;4936229;28;20126;-56
2023/02/27 03:02:20;;;;;;;6.20;1.77;;;0.50;99.90;;;;;;4936427;29;20491;-57
2023/02/27 03:04:52;;;;;;;3.90;1.25;;;0.50;99.90;;;;;;4916757;29;20134;-62
2023/02/27 03:07:29;;;;;;;6.63;1.17;;;0.40;99.90;;;;;;4931853;29;20079;-57
2023/02/27 03:10:11;;;;;;;7.75;1.38;;;0.40;99.90;;;;;;4949886;28;20411;-57
2023/02/27 03:12:39;;;;;;;4.75;2.30;;;0.40;99.90;;;;;;4952678;29;20055;-58
2023/02/27 03:15:18;;;;;;;5.22;1.70;;;0.40;99.90;;;;;;4923378;28;20409;-58
2023/02/27 03:18:07;;;;;;;2.75;1.42;;;0.40;99.90;;;;;;4925267;29;20043;-57
2023/02/27 03:20:40;;;;;;;9.88;1.75;;;0.30;99.90;;;;;;4923328;29;20082;-57
2023/02/27 03:23:12;;;;;;;8.40;1.73;;;0.30;99.90;;;;;;4918996;29;20138;-55
2023/02/27 03:25:39;;;;;;;6.30;1.58;;;0.30;99.90;;;;;;4920297;29;20048;-56
2023/02/27 03:28:08;;;;;;;3.53;1.40;;;0.30;99.90;;;;;;4919680;29;20051;-58
2023/02/27 03:30:44;;;;;;;4.43;1.35;;;0.30;99.90;;;;;;4919270;29;20054;-55
2023/02/27 03:33:30;;;;;;;6.68;1.75;;;0.30;99.90;;;;;;4934968;29;20055;-57
2023/02/27 03:36:36;;;;;;;5.50;1.83;;;0.20;99.90;;;;;;4935826;29;20081;-57
2023/02/27 03:39:04;;;;;;;5.55;1.60;;;0.10;99.90;;;;;;4952256;29;20047;-55
2023/02/27 03:41:35;;;;;;;4.25;1.98;;;0.00;99.90;;;;;;4935481;29;20106;-56
2023/02/27 03:44:04;;;;;;;3.50;1.30;;;0.00;99.90;;;;;;4934973;29;20047;-58
2023/02/27 03:46:31;;;;;;;6.78;1.70;;;0.00;99.90;;;;;;4952356;29;20055;-59
2023/02/27 03:48:58;;;;;;;13.30;2.13;;;0.00;99.90;;;;;;4934908;29;20078;-58
2023/02/27 03:51:27;;;;;;;6.00;2.33;;;0.00;99.90;;;;;;4935060;29;20055;-56
2023/02/27 03:53:56;;;;;;;11.35;2.25;;;0.00;99.90;;;;;;4935275;29;20526;-58
2023/02/27 03:56:28;;;;;;;4.57;1.48;;;-0.10;99.90;;;;;;4935393;29;20051;-56
2023/02/27 03:58:55;;;;;;;6.72;2.15;;;-0.10;99.90;;;;;;4934805;29;20047;-58
2023/02/27 04:01:21;;;;;;;7.30;1.42;;;-0.10;99.90;;;;;;4934818;29;20047;-57
2023/02/27 04:03:52;;;;;;;3.65;1.52;;;-0.10;99.90;;;;;;4932598;29;20043;-59
2023/02/27 04:09:30;;;;;;;3.42;1.40;;;-0.10;99.90;;;;;;4951663;29;20054;-57
2023/02/27 04:12:41;;;;;;;3.03;1.60;;;-0.10;99.90;;;;;;4937608;29;20051;-57
2023/02/27 04:15:48;;;;;;;8.15;1.90;;;-0.10;99.90;;;;;;4933517;29;20051;-59
2023/02/27 04:18:23;;;;;;;4.43;1.73;;;-0.10;99.90;;;;;;4967120;28;20082;-56
2023/02/27 04:21:05;;;;;;;5.88;1.35;;;-0.10;99.90;;;;;;4919761;29;20102;-58
2023/02/27 04:23:59;;;;;;;2.10;1.63;;;-0.10;99.90;;;;;;4933775;29;20062;-57
2023/02/27 04:26:57;;;;;;;5.40;2.20;;;-0.10;99.90;;;;;;4952747;28;20058;-57
2023/02/27 04:29:27;;;;;;;6.45;1.25;;;-0.20;99.90;;;;;;4951271;28;20115;-58
2023/02/27 04:32:05;;;;;;;7.28;1.88;;;-0.20;99.90;;;;;;4951387;29;20426;-58
2023/02/27 04:34:41;;;;;;;5.43;1.73;;;-0.30;99.90;;;;;;4951376;29;20071;-56
2023/02/27 04:37:15;;;;;;;2.83;1.42;;;-0.30;99.90;;;;;;4934603;29;20091;-57
2023/02/27 04:39:53;;;;;;;2.15;1.52;;;-0.30;99.90;;;;;;4934240;29;20506;-55
2023/02/27 04:42:23;;;;;;;7.00;1.80;;;-0.30;99.90;;;;;;4934445;29;20077;-55
2023/02/27 04:44:49;;;;;;;6.15;1.67;;;-0.30;99.90;;;;;;4934108;29;20047;-57
2023/02/27 04:47:16;;;;;;;4.07;1.52;;;-0.30;99.90;;;;;;4942009;28;20050;-58
2023/02/27 04:49:50;;;;;;;3.92;2.22;;;-0.30;99.90;;;;;;4948550;29;20054;-59
2023/02/27 04:52:27;;;;;;;5.93;2.33;;;-0.30;99.90;;;;;;4954382;29;20138;-57
2023/02/27 04:54:58;;;;;;;3.58;1.40;;;-0.30;99.90;;;;;;4937602;29;20047;-55
2023/02/27 04:57:31;;;;;;;22.83;1.95;;;-0.30;99.90;;;;;;4920850;29;20051;-57
2023/02/27 04:59:58;;;;;;;3.92;1.27;;;-0.40;99.90;;;;;;4922310;29;20058;-57
2023/02/27 05:02:27;;;;;;;2.53;1.30;;;-0.40;99.90;;;;;;4921580;29;20051;-56
2023/02/27 05:04:56;;;;;;;6.85;1.48;;;-0.40;99.90;;;;;;4934397;29;20087;-57
2023/02/27 05:07:35;;;;;;;5.88;1.77;;;-0.40;99.90;;;;;;4951071;29;20065;-56
2023/02/27 05:10:07;;;;;;;3.13;1.17;;;-0.40;99.90;;;;;;4919487;29;20113;-56
2023/02/27 05:12:50;;;;;;;5.63;2.15;;;-0.40;99.90;;;;;;4925202;29;20050;-56
2023/02/27 05:15:26;;;;;;;2.97;1.40;;;-0.50;99.90;;;;;;4948795;28;20061;-57
2023/02/27 05:18:07;;;;;;;3.95;1.58;;;-0.50;99.90;;;;;;4919211;29;20047;-56
2023/02/27 05:21:00;;;;;;;3.15;2.50;;;-0.50;99.90;;;;;;4950299;29;20055;-57
2023/02/27 05:23:35;;;;;;;5.72;2.10;;;-0.60;99.90;;;;;;4941897;29;20134;-56
2023/02/27 05:26:16;;;;;;;6.63;1.80;;;-0.50;99.90;;;;;;4933677;29;20052;-58
2023/02/27 05:28:51;;;;;;;5.65;1.75;;;-0.60;99.90;;;;;;4936033;29;20055;-57
2023/02/27 05:31:23;;;;;;;5.50;1.70;;;-0.60;99.90;;;;;;4932841;29;20465;-55
2023/02/27 05:33:57;;;;;;;9.68;2.17;;;-0.60;99.90;;;;;;4933513;29;20502;-55
2023/02/27 05:36:29;;;;;;;;;;;-0.60;99.90;;;;;;4933869;29;20041;-54
2023/02/27 05:38:58;;;;;;;3.40;1.70;;;-0.60;99.90;;;;;;4933504;29;20017;-58
2023/02/27 05:41:27;;;;;;;3.10;1.50;;;-0.60;99.90;;;;;;4933112;29;20066;-58
2023/02/27 05:44:19;;;;;;;3.83;1.92;;;-0.80;99.90;;;;;;4926706;29;20055;-57
2023/02/27 05:46:50;;;;;;;8.73;1.55;;;-0.60;99.90;;;;;;4932567;29;20059;-55
2023/02/27 05:49:37;;;;;;;6.97;1.85;;;-0.60;99.90;;;;;;4933380;29;20723;-57
2023/02/27 05:52:04;;;;;;;6.53;1.60;;;-0.60;99.90;;;;;;4935186;29;20053;-58
2023/02/27 05:54:43;;;;;;;2.45;1.13;;;-1.00;99.90;;;;;;4933397;29;20055;-57
2023/02/27 05:57:13;;;;;;;4.90;1.35;;;-0.70;99.90;;;;;;4933018;29;20051;-53
2023/02/27 05:59:45;;;;;;;10.35;2.08;;;-0.70;99.90;;;;;;4940024;28;20074;-53
2023/02/27 06:02:11;;;;;;;9.75;2.28;;;-0.70;99.90;;;;;;4932581;29;20066;-54
2023/02/27 06:04:39;;;;;;;13.55;1.90;;;-0.70;99.90;;;;;;4949825;29;21377;-57
2023/02/27 06:07:06;;;;;;;5.55;2.17;;;-0.80;99.90;;;;;;4932447;29;20065;-57
2023/02/27 06:09:34;;;;;;;15.20;2.00;;;-0.80;99.90;;;;;;4950071;29;20043;-57
2023/02/27 06:12:01;;;;;;;4.72;1.98;;;-0.70;99.90;;;;;;4916729;29;20074;-56
2023/02/27 06:14:27;;;;;;;8.98;2.00;;;-0.70;99.90;;;;;;4954577;28;20448;-57
2023/02/27 06:16:54;;;;;;;4.10;1.45;;;-0.80;99.90;;;;;;4950252;29;20138;-57
2023/02/27 06:19:21;;;;;;;4.00;1.88;;;-0.80;99.90;;;;;;4949766;29;20062;-55
2023/02/27 06:21:48;;;;;;;2.45;1.55;;;-0.80;99.90;;;;;;4950234;29;20163;-57
2023/02/27 06:24:15;;;;;;;3.38;1.90;;;-0.90;99.90;;;;;;4950027;29;20058;-55
2023/02/27 06:26:42;;;;;;;12.88;2.30;;;-0.90;99.90;;;;;;4950222;29;20053;-57
2023/02/27 06:29:08;;;;;;;4.93;2.25;;;-0.90;99.90;;;;;;4949257;29;20071;-56
2023/02/27 06:31:35;;;;;;;4.43;1.67;;;-0.90;99.90;;;;;;4948132;29;20055;-57
2023/02/27 06:34:02;;;;;;;11.30;1.92;;;-0.90;99.90;;;;;;4948804;29;20383;-58
2023/02/27 06:36:29;;;;;;;6.90;2.22;;;-0.90;99.90;;;;;;4949099;29;20054;-57
2023/02/27 06:38:56;;;;;;;10.18;2.50;;;-0.90;99.90;;;;;;4948747;29;20479;-56
2023/02/27 06:41:23;;;;;;;9.10;2.92;;;-0.90;99.90;;;;;;4948953;29;20112;-57
2023/02/27 06:43:50;;;;;;;3.92;1.75;;;-0.70;99.90;;;;;;4948993;29;20047;-57
2023/02/27 06:46:17;;;;;;;7.60;1.95;;;-0.90;99.90;;;;;;4959583;28;20074;-56
2023/02/27 06:48:44;;;;;;;7.05;1.83;;;-0.90;99.90;;;;;;4935918;29;20126;-56
2023/02/27 06:51:11;;;;;;;8.98;2.35;;;-0.90;99.90;;;;;;4950136;29;20040;-58
2023/02/27 06:53:38;;;;;;;5.47;2.50;;;-0.90;99.90;;;;;;4937398;29;20059;-55
2023/02/27 06:56:05;;;;;;;4.82;1.90;;;-1.00;99.90;;;;;;4920738;29;20134;-62
2023/02/27 06:58:31;;;;;;;10.80;2.70;;;-1.00;99.90;;;;;;4953002;29;20142;-58
2023/02/27 07:00:59;;;;;;;5.57;2.00;;;-1.00;99.90;;;;;;4951387;29;20465;-58
2023/02/27 07:03:26;;;;;;;5.40;1.65;;;-1.00;99.90;;;;;;4953084;29;20130;-57
2023/02/27 07:05:53;;;;;;;5.90;1.60;;;-1.00;99.90;;;;;;4952638;29;20060;-57
2023/02/27 07:08:19;;;;;;;8.48;2.28;;;-1.00;99.90;;;;;;4953027;29;20126;-55
2023/02/27 07:10:47;;;;;;;4.85;2.13;;;-1.00;99.90;;;;;;4952310;29;20062;-58
2023/02/27 07:13:15;;;;;;;4.55;2.35;;;-1.00;99.90;;;;;;4952304;29;20047;-58
2023/02/27 07:15:45;;;;;;;10.00;2.33;;;-1.00;99.90;;;;;;4953462;29;20052;-55
2023/02/27 07:18:12;;;;;;;4.65;1.80;;;-1.00;99.90;;;;;;4954326;29;20055;-57
2023/02/27 07:20:39;;;;;;;5.30;2.35;;;-1.00;99.90;;;;;;4950730;29;20050;-62
2023/02/27 07:23:05;;;;;;;6.00;2.20;;;-1.00;99.90;;;;;;4925743;29;20426;-57
2023/02/27 07:25:32;;;;;;;7.95;2.85;;;-1.00;99.90;;;;;;4952946;29;20043;-57
2023/02/27 07:27:59;;;;;;;3.92;2.15;;;-1.00;99.90;;;;;;4954298;29;20086;-56
2023/02/27 07:30:26;;;;;;;3.20;1.90;;;-0.90;99.90;;;;;;4952376;29;20051;-57
2023/02/27 07:32:52;;;;;;;9.07;1.77;;;-0.90;99.90;;;;;;4947406;29;20047;-56
2023/02/27 07:35:19;;;;;;;9.38;1.98;;;-0.80;99.90;;;;;;4945075;29;20865;-58
2023/02/27 07:37:46;;;;;;;9.80;2.30;;;-0.80;99.90;;;;;;4948796;29;20047;-58
2023/02/27 07:40:13;;;;;;;8.32;2.13;;;-0.70;99.90;;;;;;4934356;29;20047;-58
2023/02/27 07:42:40;;;;;;;9.43;2.03;;;-0.80;99.90;;;;;;4951568;29;20106;-58
2023/02/27 07:45:08;;;;;;;4.88;3.00;;;-0.70;99.90;;;;;;4951852;29;20080;-57
2023/02/27 07:47:35;;;;;;;6.20;2.05;;;-0.70;99.90;;;;;;4934702;29;20126;-57
2023/02/27 07:50:03;;;;;;;9.35;2.42;;;-0.60;99.90;;;;;;4934864;29;20055;-55
2023/02/27 07:52:30;;;;;;;10.02;3.70;;;-0.60;99.90;;;;;;4950772;29;20052;-55
2023/02/27 07:54:57;;;;;;;7.10;2.17;;;-0.50;99.90;;;;;;4951724;29;20142;-57
2023/02/27 07:57:24;;;;;;;8.38;2.00;;;-0.40;99.90;;;;;;4950461;28;20047;-58
2023/02/27 07:59:51;;;;;;;7.30;1.88;;;-0.30;99.90;;;;;;4950288;29;20094;-56
2023/02/27 08:02:17;;;;;;;11.23;2.40;;;-0.30;99.90;;;;;;4947809;29;20055;-57
2023/02/27 08:04:44;;;;;;;8.18;2.63;;;-0.20;99.90;;;;;;4948399;29;20055;-55
2023/02/27 08:07:11;;;;;;;11.35;2.75;;;-0.20;99.90;;;;;;4930493;29;20061;-56
2023/02/27 08:09:38;;;;;;;10.82;3.17;;;-0.10;99.90;;;;;;4948844;28;20059;-58
2023/02/27 08:12:05;;;;;;;8.45;2.63;;;-0.10;99.90;;;;;;4948790;29;20264;-59
2023/02/27 08:14:31;;;;;;;9.48;3.03;;;0.00;99.90;;;;;;4949492;29;20051;-56
2023/02/27 08:16:59;;;;;;;9.23;3.25;;;0.10;99.90;;;;;;4950895;29;20137;-58
2023/02/27 08:19:26;;;;;;;5.38;2.22;;;0.20;99.90;;;;;;4951391;29;20047;-57
2023/02/27 08:21:53;;;;;;;16.13;4.20;;;0.30;99.90;;;;;;4949190;29;20043;-57
2023/02/27 08:24:19;;;;;;;6.63;2.22;;;0.40;99.90;;;;;;4949348;29;20054;-54
2023/02/27 08:26:46;;;;;;;5.40;1.90;;;0.50;99.90;;;;;;4949843;29;20059;-58
2023/02/27 08:29:13;;;;;;;6.03;2.22;;;0.50;99.90;;;;;;4951027;29;20055;-56
2023/02/27 08:31:42;;;;;;;5.70;1.75;;;0.60;99.90;;;;;;4950420;29;20126;-55
2023/02/27 08:34:09;;;;;;;3.00;1.58;;;0.70;99.90;;;;;;4933714;29;20408;-59
2023/02/27 08:36:37;;;;;;;8.13;2.10;;;0.80;99.90;;;;;;4965401;28;20086;-58
2023/02/27 08:39:04;;;;;;;10.65;2.78;;;0.70;99.90;;;;;;4940839;29;20055;-56
2023/02/27 08:41:31;;;;;;;11.73;2.13;;;1.00;99.90;;;;;;4950598;29;20053;-58
2023/02/27 08:43:58;;;;;;;6.18;2.25;;;1.20;99.90;;;;;;4950153;29;20729;-58
2023/02/27 08:46:25;;;;;;;13.18;2.65;;;1.30;99.90;;;;;;4950401;29;20058;-59
2023/02/27 08:48:53;;;;;;;6.18;2.80;;;1.50;99.90;;;;;;4950057;29;20191;-59
2023/02/27 08:51:20;;;;;;;10.85;3.33;;;1.70;99.90;;;;;;4950154;29;20130;-57
2023/02/27 08:53:47;;;;;;;14.40;2.55;;;1.90;99.90;;;;;;4949917;29;20121;-57
2023/02/27 08:56:13;;;;;;;10.60;2.17;;;2.10;99.90;;;;;;4949490;29;20422;-58
2023/02/27 08:58:40;;;;;;;5.45;2.42;;;2.30;99.90;;;;;;4949574;29;20047;-58
2023/02/27 09:01:07;;;;;;;17.50;3.20;;;2.40;99.90;;;;;;4946662;28;20090;-59
2023/02/27 09:03:34;;;;;;;17.05;3.08;;;2.60;99.90;;;;;;4949794;29;20071;-56
2023/02/27 09:06:00;;;;;;;11.82;3.33;;;2.80;99.90;;;;;;4932602;29;20059;-58
2023/02/27 09:08:27;;;;;;;13.23;4.07;;;2.90;99.90;;;;;;4949412;28;20513;-57
2023/02/27 09:10:57;;;;;;;14.32;3.42;;;3.10;99.90;;;;;;4932878;29;20057;-57
2023/02/27 09:13:25;;;;;;;11.20;2.92;;;3.10;99.90;;;;;;4932481;29;20131;-57
2023/02/27 09:15:52;;;;;;;8.35;2.13;;;3.30;99.90;;;;;;4949374;29;20067;-56
2023/02/27 09:18:19;;;;;;;27.25;3.53;;;3.30;99.90;;;;;;4949494;29;20522;-57
2023/02/27 09:20:48;;;;;;;12.52;3.97;;;3.40;99.90;;;;;;4949527;29;20086;-58
2023/02/27 09:23:15;;;;;;;6.68;2.53;;;3.50;99.90;;;;;;4949078;29;20050;-58
2023/02/27 09:25:41;;;;;;;6.00;2.35;;;3.60;99.90;;;;;;4949163;29;20050;-57
2023/02/27 09:28:08;;;;;;;17.50;3.42;;;3.70;99.90;;;;;;4949810;29;20414;-59
2023/02/27 09:30:35;;;;;;;18.73;3.28;;;3.70;99.90;;;;;;4948862;29;20431;-57
2023/02/27 09:33:01;;;;;;;20.25;3.50;;;3.80;99.90;;;;;;4950234;29;20054;-57
2023/02/27 09:35:28;;;;;;;16.20;3.38;;;3.90;99.90;;;;;;4949324;29;20059;-57
2023/02/27 09:37:56;;;;;;;14.63;4.38;;;4.10;99.90;;;;;;4949224;29;20050;-59
2023/02/27 09:40:24;;;;;;;14.30;2.22;;;4.10;99.90;;;;;;4948976;29;20055;-58
2023/02/27 09:42:51;;;;;;;8.30;2.53;;;4.30;99.90;;;;;;4950181;29;20103;-58
2023/02/27 09:45:23;;;;;;;22.50;3.00;;;4.40;99.90;;;;;;4951580;29;20051;-55
2023/02/27 09:47:57;;;;;;;9.45;2.25;;;4.50;99.90;;;;;;4934950;29;20082;-57
2023/02/27 09:50:36;;;;;;;17.95;4.55;;;4.60;99.90;;;;;;4934493;29;20053;-58
2023/02/27 09:53:14;;;;;;;8.70;2.10;;;4.70;99.90;;;;;;4935816;29;20271;-57
2023/02/27 09:55:40;;;;;;;7.47;2.35;;;4.90;99.90;;;;;;4919793;29;20494;-58
2023/02/27 09:58:42;;;;;;;13.65;2.45;;;5.00;99.90;;;;;;4932773;29;20051;-58
2023/02/27 10:01:18;;;;;;;13.82;2.13;;;5.10;99.90;;;;;;4948779;29;20154;-58
2023/02/27 10:04:26;;;;;;;8.05;2.17;;;5.20;99.90;;;;;;4933254;29;20051;-57
2023/02/27 10:06:58;;;;;;;20.33;2.25;;;5.20;99.90;;;;;;4870535;29;20053;-57
2023/02/27 10:09:51;;;;;;;10.73;2.30;;;5.40;99.90;;;;;;4855949;29;20516;-57
2023/02/27 10:12:45;;;;;;;9.07;2.20;;;5.40;99.90;;;;;;4898092;29;20127;-58
2023/02/27 10:15:32;;;;;;;9.50;2.13;;;5.50;99.90;;;;;;4948186;29;20391;-58
2023/02/27 10:18:01;;;;;;;5.47;1.52;;;5.60;99.90;;;;;;4932260;29;20062;-58
2023/02/27 10:21:09;;;;;;;15.00;2.42;;;5.70;99.90;;;;;;4933307;29;20039;-60
2023/02/27 10:23:55;;;;;;;23.65;2.95;;;5.80;99.90;;;;;;4908881;29;20058;-57
2023/02/27 10:26:25;;;;;;;11.05;2.47;;;5.90;99.90;;;;;;4949097;29;20074;-56
2023/02/27 10:28:52;;;;;;;6.93;2.60;;;5.80;99.90;;;;;;4932306;29;20056;-58
2023/02/27 10:31:24;;;;;;;13.48;2.38;;;5.80;99.90;;;;;;4948389;29;20510;-58
2023/02/27 10:33:51;;;;;;;9.43;1.58;;;6.00;99.90;;;;;;4932244;29;20047;-60
2023/02/27 10:36:18;;;;;;;9.80;1.85;;;6.20;99.90;;;;;;4916365;29;20173;-59
2023/02/27 10:39:06;;;;;;;8.88;1.60;;;6.30;99.90;;;;;;4911076;29;20047;-58
2023/02/27 10:41:34;;;;;;;16.98;2.15;;;6.40;99.90;;;;;;4916890;29;20047;-59
2023/02/27 10:44:01;;;;;;;12.50;1.60;;;6.50;99.90;;;;;;4932086;29;20130;-59
2023/02/27 10:46:29;;;;;;;17.33;1.80;;;6.40;99.90;;;;;;4933527;29;21431;-59
2023/02/27 10:49:00;;;;;;;8.02;1.92;;;6.40;99.90;;;;;;4932326;29;20086;-57
2023/02/27 10:51:30;;;;;;;10.25;1.63;;;6.50;99.90;;;;;;4948847;29;21233;-58
2023/02/27 10:54:18;;;;;;;16.27;1.48;;;6.50;99.90;;;;;;4948962;29;20051;-58
2023/02/27 10:56:47;;;;;;;8.07;1.45;;;6.50;99.90;;;;;;4930010;29;20149;-56
2023/02/27 10:59:18;;;;;;;9.27;1.73;;;6.40;99.90;;;;;;4948715;29;20057;-58
2023/02/27 11:01:53;;;;;;;6.80;2.08;;;6.40;99.90;;;;;;4947931;29;20138;-57
2023/02/27 11:04:34;;;;;;;11.88;1.40;;;6.30;99.90;;;;;;4914038;29;20055;-55
2023/02/27 11:07:03;;;;;;;3.00;1.17;;;6.30;99.90;;;;;;4917156;29;20062;-56
2023/02/27 11:09:32;;;;;;;8.70;2.00;;;6.40;99.90;;;;;;4932094;29;20110;-57
2023/02/27 11:12:28;;;;;;;12.18;2.00;;;6.60;99.90;;;;;;4947868;29;20367;-58
2023/02/27 11:15:24;;;;;;;11.25;1.98;;;6.60;99.90;;;;;;4931395;29;20055;-56
2023/02/27 11:17:52;;;;;;;14.00;1.77;;;6.70;99.90;;;;;;4945476;29;20039;-56
2023/02/27 11:20:36;;;;;;;16.33;1.50;;;6.60;99.90;;;;;;4947101;29;20062;-57
2023/02/27 11:23:11;;;;;;;10.02;1.17;;;6.70;99.90;;;;;;4947137;29;20078;-56
2023/02/27 11:25:38;;;;;;;4.95;1.00;;;6.70;99.90;;;;;;4947256;29;20055;-58
2023/02/27 11:28:21;;;;;;;6.65;1.00;;;6.70;99.90;;;;;;4929983;29;20044;-57
2023/02/27 11:31:04;;;;;;;7.80;1.40;;;6.70;99.90;;;;;;4940341;28;20051;-57
2023/02/27 11:33:39;;;;;;;7.47;2.03;;;6.90;99.90;;;;;;4934827;29;20039;-55
2023/02/27 11:36:06;;;;;;;12.23;1.20;;;7.00;99.90;;;;;;4920404;29;20405;-56
2023/02/27 11:38:33;;;;;;;4.82;2.08;;;7.00;99.90;;;;;;4951391;29;20070;-54
2023/02/27 11:41:02;;;;;;;3.13;1.10;;;7.10;99.90;;;;;;4934869;29;20062;-57
2023/02/27 11:43:38;;;;;;;5.65;1.73;;;7.10;99.90;;;;;;4934706;29;20066;-58
2023/02/27 11:46:08;;;;;;;4.15;0.95;;;7.10;99.90;;;;;;4934494;29;20083;-57
2023/02/27 11:49:17;;;;;;;6.43;1.02;;;7.10;99.90;;;;;;4937152;29;20051;-58
2023/02/27 11:52:15;;;;;;;6.00;1.08;;;7.20;99.90;;;;;;4951008;29;20497;-58
2023/02/27 11:54:44;;;;;;;10.13;1.23;;;7.30;99.90;;;;;;4919954;29;20173;-58
2023/02/27 11:57:27;;;;;;;14.60;2.55;;;7.40;99.90;;;;;;4934820;29;20051;-53
2023/02/27 12:00:19;;;;;;;8.38;3.70;;;7.60;99.90;;;;;;4934626;29;20134;-57
2023/02/27 12:02:57;;;;;;;2.95;1.02;;;7.70;99.90;;;;;;4940783;29;20126;-59
2023/02/27 12:05:28;;;;;;;8.77;1.25;;;7.60;99.90;;;;;;4934693;29;20047;-58
2023/02/27 12:08:00;;;;;;;5.22;1.40;;;7.60;99.90;;;;;;4951553;29;20058;-59
2023/02/27 12:10:28;;;;;;;13.77;3.22;;;7.60;99.90;;;;;;4918607;29;20110;-58
2023/02/27 12:13:03;;;;;;;12.32;1.73;;;7.50;99.90;;;;;;4934284;29;20126;-58
2023/02/27 12:15:46;;;;;;;8.65;1.27;;;7.50;99.90;;;;;;4933953;29;20051;-58
2023/02/27 12:18:24;;;;;;;8.85;1.17;;;7.60;99.90;;;;;;4920151;29;20101;-58
2023/02/27 12:20:53;;;;;;;5.60;1.23;;;7.60;99.90;;;;;;4935001;29;20043;-58
2023/02/27 12:24:04;;;;;;;4.18;1.33;;;7.70;99.90;;;;;;4934051;29;20051;-57
2023/02/27 12:26:36;;;;;;;5.88;0.82;;;7.70;99.90;;;;;;4872529;29;20060;-58
2023/02/27 12:29:22;;;;;;;5.68;1.05;;;7.60;99.90;;;;;;4857665;29;20045;-58
2023/02/27 12:31:50;;;;;;;13.18;1.10;;;7.50;99.90;;;;;;4908461;29;20061;-57
2023/02/27 12:35:00;;;;;;;9.13;2.17;;;7.50;99.90;;;;;;4933994;29;20391;-57
2023/02/27 12:37:27;;;;;;;11.25;2.60;;;7.40;99.90;;;;;;4850673;29;20708;-57
2023/02/27 12:39:57;;;;;;;5.75;1.50;;;7.40;99.90;;;;;;4852419;29;20050;-56
2023/02/27 12:42:24;;;;;;;7.05;1.20;;;7.40;99.90;;;;;;4905407;28;20047;-55
2023/02/27 12:44:58;;;;;;;9.32;2.45;;;7.50;99.90;;;;;;4949621;29;20094;-56
2023/02/27 12:47:43;;;;;;;5.60;1.15;;;7.60;99.90;;;;;;4932860;29;20134;-57
2023/02/27 12:50:23;;;;;;;9.10;1.48;;;7.60;99.90;;;;;;4918045;29;20110;-55
2023/02/27 12:53:11;;;;;;;9.35;1.92;;;7.80;99.90;;;;;;4935099;29;20503;-57
2023/02/27 12:55:45;;;;;;;9.05;1.92;;;8.00;99.90;;;;;;4950163;29;20047;-57
2023/02/27 12:58:34;;;;;;;5.25;1.50;;;8.10;99.90;;;;;;4917934;29;20126;-58
2023/02/27 13:01:36;;;;;;;3.95;0.93;;;8.00;99.90;;;;;;4949689;29;20143;-56
2023/02/27 13:04:26;;;;;;;6.45;1.30;;;8.00;99.90;;;;;;4940138;29;20051;-55
2023/02/27 13:06:56;;;;;;;8.27;1.52;;;7.90;99.90;;;;;;4937864;29;20573;-61
2023/02/27 13:09:33;;;;;;;10.88;3.28;;;7.90;99.90;;;;;;4932858;29;20450;-58
2023/02/27 13:12:06;;;;;;;10.70;1.67;;;7.90;99.90;;;;;;4932883;29;20051;-58
2023/02/27 13:14:46;;;;;;;11.60;1.10;;;7.90;99.90;;;;;;4950237;29;20051;-58
2023/02/27 13:17:38;;;;;;;21.92;2.55;;;8.00;99.90;;;;;;4932637;29;20129;-57
2023/02/27 13:20:20;;;;;;;4.85;1.20;;;8.00;99.90;;;;;;4949548;29;20135;-57
2023/02/27 13:23:03;;;;;;;11.20;2.17;;;8.20;99.90;;;;;;4949423;29;20075;-57